sensor_id;sensor_type;location;lat;lon;timestamp;P1;durP1;ratioP1;P2;durP2;ratioP2
16612;SDS011;8419;52.358;9.752;2022-08-18T00:00:07;9.13;;;5.20;;
16612;SDS011;8419;52.358;9.752;2022-08-18T00:03:00;5.62;;;4.93;;
16612;SDS011;8419;52.358;9.752;2022-08-18T00:05:52;5.78;;;4.75;;
16612;SDS011;8419;52.358;9.752;2022-08-18T00:08:37;7.72;;;6.03;;
16612;SDS011;8419;52.358;9.752;2022-08-18T00:11:23;8.18;;;5.62;;
16612;SDS011;8419;52.358;9.752;2022-08-18T00:14:11;6.70;;;5.45;;
16612;SDS011;8419;52.358;9.752;2022-08-18T00:17:01;8.10;;;5.78;;
16612;SDS011;8419;52.358;9.752;2022-08-18T00:19:47;9.10;;;5.70;;
16612;SDS011;8419;52.358;9.752;2022-08-18T00:22:33;6.97;;;5.80;;
16612;SDS011;8419;52.358;9.752;2022-08-18T00:25:21;7.30;;;5.43;;
16612;SDS011;8419;52.358;9.752;2022-08-18T00:28:11;8.57;;;5.53;;
16612;SDS011;8419;52.358;9.752;2022-08-18T00:31:01;7.12;;;6.22;;
16612;SDS011;8419;52.358;9.752;2022-08-18T00:33:47;8.52;;;6.25;;
16612;SDS011;8419;52.358;9.752;2022-08-18T00:36:34;9.40;;;6.62;;
16612;SDS011;8419;52.358;9.752;2022-08-18T00:39:23;8.35;;;5.72;;
16612;SDS011;8419;52.358;9.752;2022-08-18T00:42:13;8.75;;;6.47;;
16612;SDS011;8419;52.358;9.752;2022-08-18T00:45:03;7.65;;;6.85;;
16612;SDS011;8419;52.358;9.752;2022-08-18T00:47:54;7.05;;;6.35;;
16612;SDS011;8419;52.358;9.752;2022-08-18T00:50:45;8.55;;;7.05;;
16612;SDS011;8419;52.358;9.752;2022-08-18T00:53:36;8.98;;;7.05;;
16612;SDS011;8419;52.358;9.752;2022-08-18T00:56:29;8.38;;;7.15;;
16612;SDS011;8419;52.358;9.752;2022-08-18T00:59:25;8.75;;;6.90;;
16612;SDS011;8419;52.358;9.752;2022-08-18T01:02:19;8.25;;;7.15;;
16612;SDS011;8419;52.358;9.752;2022-08-18T01:05:11;9.77;;;7.72;;
16612;SDS011;8419;52.358;9.752;2022-08-18T01:08:01;11.30;;;8.00;;
16612;SDS011;8419;52.358;9.752;2022-08-18T01:10:47;12.45;;;8.73;;
16612;SDS011;8419;52.358;9.752;2022-08-18T01:13:34;9.68;;;8.43;;
16612;SDS011;8419;52.358;9.752;2022-08-18T01:16:22;12.57;;;9.20;;
16612;SDS011;8419;52.358;9.752;2022-08-18T01:19:26;15.60;;;11.10;;
16612;SDS011;8419;52.358;9.752;2022-08-18T01:22:32;17.42;;;12.75;;
16612;SDS011;8419;52.358;9.752;2022-08-18T01:25:22;15.60;;;11.68;;
16612;SDS011;8419;52.358;9.752;2022-08-18T01:28:27;15.07;;;11.80;;
16612;SDS011;8419;52.358;9.752;2022-08-18T01:31:29;16.60;;;12.02;;
16612;SDS011;8419;52.358;9.752;2022-08-18T01:34:21;15.15;;;12.30;;
16612;SDS011;8419;52.358;9.752;2022-08-18T01:37:09;18.73;;;12.85;;
16612;SDS011;8419;52.358;9.752;2022-08-18T01:39:57;16.05;;;12.57;;
16612;SDS011;8419;52.358;9.752;2022-08-18T01:42:43;19.95;;;14.02;;
16612;SDS011;8419;52.358;9.752;2022-08-18T01:45:30;17.15;;;12.63;;
16612;SDS011;8419;52.358;9.752;2022-08-18T01:48:16;18.60;;;12.95;;
16612;SDS011;8419;52.358;9.752;2022-08-18T01:51:02;17.33;;;13.35;;
16612;SDS011;8419;52.358;9.752;2022-08-18T01:53:50;19.40;;;13.80;;
16612;SDS011;8419;52.358;9.752;2022-08-18T01:56:35;20.77;;;14.52;;
16612;SDS011;8419;52.358;9.752;2022-08-18T01:59:21;19.80;;;14.30;;
16612;SDS011;8419;52.358;9.752;2022-08-18T02:02:07;20.33;;;15.05;;
16612;SDS011;8419;52.358;9.752;2022-08-18T02:04:56;27.50;;;15.75;;
16612;SDS011;8419;52.358;9.752;2022-08-18T02:07:46;22.85;;;15.60;;
16612;SDS011;8419;52.358;9.752;2022-08-18T02:10:32;20.95;;;15.68;;
16612;SDS011;8419;52.358;9.752;2022-08-18T02:13:17;23.08;;;15.23;;
16612;SDS011;8419;52.358;9.752;2022-08-18T02:16:03;24.08;;;16.30;;
16612;SDS011;8419;52.358;9.752;2022-08-18T02:18:51;20.00;;;15.80;;
16612;SDS011;8419;52.358;9.752;2022-08-18T02:21:36;23.35;;;15.32;;
16612;SDS011;8419;52.358;9.752;2022-08-18T02:24:21;20.40;;;16.17;;
16612;SDS011;8419;52.358;9.752;2022-08-18T02:27:07;20.73;;;14.93;;
16612;SDS011;8419;52.358;9.752;2022-08-18T02:29:54;18.58;;;15.50;;
16612;SDS011;8419;52.358;9.752;2022-08-18T02:32:42;20.15;;;14.18;;
16612;SDS011;8419;52.358;9.752;2022-08-18T02:35:28;21.17;;;14.87;;
16612;SDS011;8419;52.358;9.752;2022-08-18T02:38:14;21.10;;;15.88;;
16612;SDS011;8419;52.358;9.752;2022-08-18T02:41:00;21.02;;;17.00;;
16612;SDS011;8419;52.358;9.752;2022-08-18T02:43:47;20.70;;;16.25;;
16612;SDS011;8419;52.358;9.752;2022-08-18T02:46:33;21.02;;;16.27;;
16612;SDS011;8419;52.358;9.752;2022-08-18T02:49:20;24.00;;;17.23;;
16612;SDS011;8419;52.358;9.752;2022-08-18T02:52:09;21.52;;;16.42;;
16612;SDS011;8419;52.358;9.752;2022-08-18T02:54:54;21.10;;;16.20;;
16612;SDS011;8419;52.358;9.752;2022-08-18T02:57:41;24.08;;;16.87;;
16612;SDS011;8419;52.358;9.752;2022-08-18T03:00:27;25.08;;;16.45;;
16612;SDS011;8419;52.358;9.752;2022-08-18T03:03:13;22.37;;;17.27;;
16612;SDS011;8419;52.358;9.752;2022-08-18T03:05:58;22.13;;;16.20;;
16612;SDS011;8419;52.358;9.752;2022-08-18T03:08:44;25.10;;;17.00;;
16612;SDS011;8419;52.358;9.752;2022-08-18T03:11:32;21.40;;;16.73;;
16612;SDS011;8419;52.358;9.752;2022-08-18T03:14:18;24.45;;;18.17;;
16612;SDS011;8419;52.358;9.752;2022-08-18T03:17:05;22.87;;;17.40;;
16612;SDS011;8419;52.358;9.752;2022-08-18T03:19:52;20.37;;;15.40;;
16612;SDS011;8419;52.358;9.752;2022-08-18T03:22:37;25.05;;;17.27;;
16612;SDS011;8419;52.358;9.752;2022-08-18T03:25:23;23.87;;;18.15;;
16612;SDS011;8419;52.358;9.752;2022-08-18T03:28:08;25.77;;;17.90;;
16612;SDS011;8419;52.358;9.752;2022-08-18T03:30:54;25.33;;;17.85;;
16612;SDS011;8419;52.358;9.752;2022-08-18T03:33:40;25.12;;;18.02;;
16612;SDS011;8419;52.358;9.752;2022-08-18T03:36:28;23.25;;;17.83;;
16612;SDS011;8419;52.358;9.752;2022-08-18T03:39:17;28.55;;;17.20;;
16612;SDS011;8419;52.358;9.752;2022-08-18T03:42:06;22.50;;;16.10;;
16612;SDS011;8419;52.358;9.752;2022-08-18T03:44:51;23.40;;;15.07;;
16612;SDS011;8419;52.358;9.752;2022-08-18T03:47:37;29.63;;;20.75;;
16612;SDS011;8419;52.358;9.752;2022-08-18T03:50:23;30.35;;;20.48;;
16612;SDS011;8419;52.358;9.752;2022-08-18T03:53:08;33.28;;;20.23;;
16612;SDS011;8419;52.358;9.752;2022-08-18T03:55:54;32.45;;;20.83;;
16612;SDS011;8419;52.358;9.752;2022-08-18T03:58:40;29.42;;;19.98;;
16612;SDS011;8419;52.358;9.752;2022-08-18T04:01:29;28.73;;;20.73;;
16612;SDS011;8419;52.358;9.752;2022-08-18T04:04:17;32.78;;;22.50;;
16612;SDS011;8419;52.358;9.752;2022-08-18T04:07:13;30.88;;;22.27;;
16612;SDS011;8419;52.358;9.752;2022-08-18T04:10:00;32.70;;;22.25;;
16612;SDS011;8419;52.358;9.752;2022-08-18T04:12:46;31.02;;;21.85;;
16612;SDS011;8419;52.358;9.752;2022-08-18T04:15:31;31.95;;;20.15;;
16612;SDS011;8419;52.358;9.752;2022-08-18T04:18:17;29.65;;;22.15;;
16612;SDS011;8419;52.358;9.752;2022-08-18T04:21:03;32.63;;;22.70;;
16612;SDS011;8419;52.358;9.752;2022-08-18T04:23:51;31.92;;;20.45;;
16612;SDS011;8419;52.358;9.752;2022-08-18T04:26:38;30.98;;;21.87;;
16612;SDS011;8419;52.358;9.752;2022-08-18T04:29:26;27.83;;;20.80;;
16612;SDS011;8419;52.358;9.752;2022-08-18T04:32:12;28.73;;;19.92;;
16612;SDS011;8419;52.358;9.752;2022-08-18T04:34:58;29.27;;;19.90;;
16612;SDS011;8419;52.358;9.752;2022-08-18T04:37:44;24.83;;;17.15;;
16612;SDS011;8419;52.358;9.752;2022-08-18T04:40:29;26.55;;;19.20;;
16612;SDS011;8419;52.358;9.752;2022-08-18T04:43:17;29.95;;;20.52;;
16612;SDS011;8419;52.358;9.752;2022-08-18T04:46:02;27.25;;;19.20;;
16612;SDS011;8419;52.358;9.752;2022-08-18T04:48:50;31.85;;;20.75;;
16612;SDS011;8419;52.358;9.752;2022-08-18T04:51:35;28.02;;;19.60;;
16612;SDS011;8419;52.358;9.752;2022-08-18T04:54:25;27.50;;;19.55;;
16612;SDS011;8419;52.358;9.752;2022-08-18T04:57:11;28.87;;;19.42;;
16612;SDS011;8419;52.358;9.752;2022-08-18T04:59:59;25.83;;;18.27;;
16612;SDS011;8419;52.358;9.752;2022-08-18T05:02:46;25.98;;;18.27;;
16612;SDS011;8419;52.358;9.752;2022-08-18T05:05:32;25.42;;;18.12;;
16612;SDS011;8419;52.358;9.752;2022-08-18T05:08:17;29.48;;;18.58;;
16612;SDS011;8419;52.358;9.752;2022-08-18T05:11:03;25.33;;;18.20;;
16612;SDS011;8419;52.358;9.752;2022-08-18T05:13:49;27.05;;;18.87;;
16612;SDS011;8419;52.358;9.752;2022-08-18T05:16:35;27.33;;;18.87;;
16612;SDS011;8419;52.358;9.752;2022-08-18T05:19:23;25.62;;;18.12;;
16612;SDS011;8419;52.358;9.752;2022-08-18T05:22:09;25.85;;;17.67;;
16612;SDS011;8419;52.358;9.752;2022-08-18T05:24:57;29.87;;;18.87;;
16612;SDS011;8419;52.358;9.752;2022-08-18T05:27:43;30.50;;;19.90;;
16612;SDS011;8419;52.358;9.752;2022-08-18T05:30:28;24.35;;;17.12;;
16612;SDS011;8419;52.358;9.752;2022-08-18T05:33:14;26.23;;;18.17;;
16612;SDS011;8419;52.358;9.752;2022-08-18T05:36:00;30.42;;;19.58;;
16612;SDS011;8419;52.358;9.752;2022-08-18T05:38:52;27.25;;;17.12;;
16612;SDS011;8419;52.358;9.752;2022-08-18T05:41:43;27.15;;;17.73;;
16612;SDS011;8419;52.358;9.752;2022-08-18T05:44:35;26.52;;;17.40;;
16612;SDS011;8419;52.358;9.752;2022-08-18T05:47:24;28.00;;;17.48;;
16612;SDS011;8419;52.358;9.752;2022-08-18T05:50:13;27.50;;;18.20;;
16612;SDS011;8419;52.358;9.752;2022-08-18T05:53:04;23.02;;;15.40;;
16612;SDS011;8419;52.358;9.752;2022-08-18T05:55:54;26.62;;;18.52;;
16612;SDS011;8419;52.358;9.752;2022-08-18T05:59:10;29.67;;;19.33;;
16612;SDS011;8419;52.358;9.752;2022-08-18T06:02:02;27.27;;;19.15;;
16612;SDS011;8419;52.358;9.752;2022-08-18T06:04:55;29.10;;;18.30;;
16612;SDS011;8419;52.358;9.752;2022-08-18T06:07:44;29.60;;;19.55;;
16612;SDS011;8419;52.358;9.752;2022-08-18T06:10:36;28.35;;;18.77;;
16612;SDS011;8419;52.358;9.752;2022-08-18T06:13:22;29.30;;;17.23;;
16612;SDS011;8419;52.358;9.752;2022-08-18T06:16:09;32.08;;;20.20;;
16612;SDS011;8419;52.358;9.752;2022-08-18T06:19:04;29.33;;;20.00;;
16612;SDS011;8419;52.358;9.752;2022-08-18T06:22:00;26.73;;;19.98;;
16612;SDS011;8419;52.358;9.752;2022-08-18T06:24:52;29.95;;;20.73;;
16612;SDS011;8419;52.358;9.752;2022-08-18T06:27:48;28.50;;;19.92;;
16612;SDS011;8419;52.358;9.752;2022-08-18T06:30:43;33.38;;;20.80;;
16612;SDS011;8419;52.358;9.752;2022-08-18T06:33:39;36.17;;;23.85;;
16612;SDS011;8419;52.358;9.752;2022-08-18T06:36:34;40.08;;;22.80;;
16612;SDS011;8419;52.358;9.752;2022-08-18T06:39:31;36.15;;;22.85;;
16612;SDS011;8419;52.358;9.752;2022-08-18T06:42:26;36.65;;;22.67;;
16612;SDS011;8419;52.358;9.752;2022-08-18T06:45:14;41.30;;;23.73;;
16612;SDS011;8419;52.358;9.752;2022-08-18T06:48:03;38.67;;;23.27;;
16612;SDS011;8419;52.358;9.752;2022-08-18T06:50:57;24.63;;;13.93;;
16612;SDS011;8419;52.358;9.752;2022-08-18T06:53:51;36.83;;;22.62;;
16612;SDS011;8419;52.358;9.752;2022-08-18T06:56:45;41.28;;;25.75;;
16612;SDS011;8419;52.358;9.752;2022-08-18T06:59:33;34.47;;;23.20;;
16612;SDS011;8419;52.358;9.752;2022-08-18T07:02:19;36.25;;;21.10;;
16612;SDS011;8419;52.358;9.752;2022-08-18T07:05:16;37.85;;;24.67;;
16612;SDS011;8419;52.358;9.752;2022-08-18T07:08:05;34.95;;;23.65;;
16612;SDS011;8419;52.358;9.752;2022-08-18T07:10:59;7.22;;;5.57;;
16612;SDS011;8419;52.358;9.752;2022-08-18T07:13:57;28.00;;;15.77;;
16612;SDS011;8419;52.358;9.752;2022-08-18T07:17:08;23.48;;;15.05;;
16612;SDS011;8419;52.358;9.752;2022-08-18T07:19:57;25.33;;;16.10;;
16612;SDS011;8419;52.358;9.752;2022-08-18T07:22:51;33.85;;;22.60;;
16612;SDS011;8419;52.358;9.752;2022-08-18T07:25:42;11.85;;;6.82;;
16612;SDS011;8419;52.358;9.752;2022-08-18T07:28:31;39.30;;;24.83;;
16612;SDS011;8419;52.358;9.752;2022-08-18T07:31:29;37.63;;;21.33;;
16612;SDS011;8419;52.358;9.752;2022-08-18T07:34:22;40.80;;;26.23;;
16612;SDS011;8419;52.358;9.752;2022-08-18T07:37:14;10.18;;;6.62;;
16612;SDS011;8419;52.358;9.752;2022-08-18T07:40:04;12.07;;;7.47;;
16612;SDS011;8419;52.358;9.752;2022-08-18T07:43:02;27.70;;;15.90;;
16612;SDS011;8419;52.358;9.752;2022-08-18T07:45:53;36.65;;;23.95;;
16612;SDS011;8419;52.358;9.752;2022-08-18T07:48:45;37.97;;;23.35;;
16612;SDS011;8419;52.358;9.752;2022-08-18T07:51:33;33.25;;;18.87;;
16612;SDS011;8419;52.358;9.752;2022-08-18T07:54:31;37.42;;;21.15;;
16612;SDS011;8419;52.358;9.752;2022-08-18T07:57:38;30.58;;;19.92;;
16612;SDS011;8419;52.358;9.752;2022-08-18T08:00:29;35.58;;;22.23;;
16612;SDS011;8419;52.358;9.752;2022-08-18T08:03:22;27.20;;;14.00;;
16612;SDS011;8419;52.358;9.752;2022-08-18T08:06:15;25.35;;;16.20;;
16612;SDS011;8419;52.358;9.752;2022-08-18T08:09:08;38.70;;;20.90;;
16612;SDS011;8419;52.358;9.752;2022-08-18T08:12:06;29.35;;;16.05;;
16612;SDS011;8419;52.358;9.752;2022-08-18T08:15:18;32.17;;;19.40;;
16612;SDS011;8419;52.358;9.752;2022-08-18T08:18:13;32.25;;;19.92;;
16612;SDS011;8419;52.358;9.752;2022-08-18T08:21:07;36.95;;;20.52;;
16612;SDS011;8419;52.358;9.752;2022-08-18T08:23:55;25.20;;;15.38;;
16612;SDS011;8419;52.358;9.752;2022-08-18T08:26:55;26.95;;;17.15;;
16612;SDS011;8419;52.358;9.752;2022-08-18T08:29:46;23.25;;;15.13;;
16612;SDS011;8419;52.358;9.752;2022-08-18T08:32:40;30.80;;;18.83;;
16612;SDS011;8419;52.358;9.752;2022-08-18T08:35:35;24.25;;;13.20;;
16612;SDS011;8419;52.358;9.752;2022-08-18T08:38:28;29.08;;;15.45;;
16612;SDS011;8419;52.358;9.752;2022-08-18T08:41:23;35.20;;;21.23;;
16612;SDS011;8419;52.358;9.752;2022-08-18T08:44:18;21.48;;;13.13;;
16612;SDS011;8419;52.358;9.752;2022-08-18T08:47:09;11.12;;;6.57;;
16612;SDS011;8419;52.358;9.752;2022-08-18T08:50:02;23.10;;;14.00;;
16612;SDS011;8419;52.358;9.752;2022-08-18T08:52:53;30.52;;;18.25;;
16612;SDS011;8419;52.358;9.752;2022-08-18T08:55:43;32.00;;;18.98;;
16612;SDS011;8419;52.358;9.752;2022-08-18T08:58:34;29.73;;;18.75;;
16612;SDS011;8419;52.358;9.752;2022-08-18T09:01:27;27.52;;;18.73;;
16612;SDS011;8419;52.358;9.752;2022-08-18T09:04:29;25.37;;;18.17;;
16612;SDS011;8419;52.358;9.752;2022-08-18T09:07:27;30.95;;;17.80;;
16612;SDS011;8419;52.358;9.752;2022-08-18T09:10:30;27.23;;;18.23;;
16612;SDS011;8419;52.358;9.752;2022-08-18T09:13:33;26.25;;;16.02;;
16612;SDS011;8419;52.358;9.752;2022-08-18T09:16:42;21.30;;;11.82;;
16612;SDS011;8419;52.358;9.752;2022-08-18T09:19:41;17.90;;;10.38;;
16612;SDS011;8419;52.358;9.752;2022-08-18T09:22:44;20.08;;;12.35;;
16612;SDS011;8419;52.358;9.752;2022-08-18T09:25:44;24.12;;;15.95;;
16612;SDS011;8419;52.358;9.752;2022-08-18T09:28:51;25.23;;;16.73;;
16612;SDS011;8419;52.358;9.752;2022-08-18T09:31:39;21.55;;;15.73;;
16612;SDS011;8419;52.358;9.752;2022-08-18T09:34:31;21.40;;;13.85;;
16612;SDS011;8419;52.358;9.752;2022-08-18T09:37:27;22.48;;;15.45;;
16612;SDS011;8419;52.358;9.752;2022-08-18T09:40:22;16.27;;;10.10;;
16612;SDS011;8419;52.358;9.752;2022-08-18T09:43:30;21.87;;;14.52;;
16612;SDS011;8419;52.358;9.752;2022-08-18T09:46:48;22.85;;;14.95;;
16612;SDS011;8419;52.358;9.752;2022-08-18T09:49:44;23.50;;;16.17;;
16612;SDS011;8419;52.358;9.752;2022-08-18T09:55:59;22.33;;;14.45;;
16612;SDS011;8419;52.358;9.752;2022-08-18T09:58:49;25.85;;;16.33;;
16612;SDS011;8419;52.358;9.752;2022-08-18T10:01:48;20.77;;;13.62;;
16612;SDS011;8419;52.358;9.752;2022-08-18T10:04:34;23.40;;;15.20;;
16612;SDS011;8419;52.358;9.752;2022-08-18T10:07:33;21.95;;;15.43;;
16612;SDS011;8419;52.358;9.752;2022-08-18T10:10:22;17.42;;;12.80;;
16612;SDS011;8419;52.358;9.752;2022-08-18T10:13:14;18.33;;;13.75;;
16612;SDS011;8419;52.358;9.752;2022-08-18T10:16:06;18.60;;;13.75;;
16612;SDS011;8419;52.358;9.752;2022-08-18T10:19:05;21.80;;;14.73;;
16612;SDS011;8419;52.358;9.752;2022-08-18T10:22:02;19.12;;;12.50;;
16612;SDS011;8419;52.358;9.752;2022-08-18T10:24:51;23.62;;;11.68;;
16612;SDS011;8419;52.358;9.752;2022-08-18T10:27:46;20.83;;;14.82;;
16612;SDS011;8419;52.358;9.752;2022-08-18T10:30:45;18.45;;;14.13;;
16612;SDS011;8419;52.358;9.752;2022-08-18T10:33:55;17.30;;;12.48;;
16612;SDS011;8419;52.358;9.752;2022-08-18T10:36:50;18.05;;;13.10;;
16612;SDS011;8419;52.358;9.752;2022-08-18T10:39:43;15.57;;;12.75;;
16612;SDS011;8419;52.358;9.752;2022-08-18T10:42:32;17.37;;;12.88;;
16612;SDS011;8419;52.358;9.752;2022-08-18T10:45:23;16.02;;;10.85;;
16612;SDS011;8419;52.358;9.752;2022-08-18T10:48:21;18.90;;;10.93;;
16612;SDS011;8419;52.358;9.752;2022-08-18T10:51:15;14.65;;;11.85;;
16612;SDS011;8419;52.358;9.752;2022-08-18T10:54:09;15.93;;;9.52;;
16612;SDS011;8419;52.358;9.752;2022-08-18T10:57:05;18.17;;;12.15;;
16612;SDS011;8419;52.358;9.752;2022-08-18T10:59:57;13.35;;;10.93;;
16612;SDS011;8419;52.358;9.752;2022-08-18T11:02:55;13.20;;;9.93;;
16612;SDS011;8419;52.358;9.752;2022-08-18T11:05:59;16.02;;;10.82;;
16612;SDS011;8419;52.358;9.752;2022-08-18T11:08:47;12.07;;;10.02;;
16612;SDS011;8419;52.358;9.752;2022-08-18T11:11:37;13.70;;;10.13;;
16612;SDS011;8419;52.358;9.752;2022-08-18T11:14:45;13.55;;;10.52;;
16612;SDS011;8419;52.358;9.752;2022-08-18T11:17:45;9.30;;;6.43;;
16612;SDS011;8419;52.358;9.752;2022-08-18T11:20:39;10.45;;;8.95;;
16612;SDS011;8419;52.358;9.752;2022-08-18T11:23:27;12.75;;;9.70;;
16612;SDS011;8419;52.358;9.752;2022-08-18T11:26:13;11.77;;;8.27;;
16612;SDS011;8419;52.358;9.752;2022-08-18T11:28:59;10.55;;;8.35;;
16612;SDS011;8419;52.358;9.752;2022-08-18T11:31:45;5.35;;;3.37;;
16612;SDS011;8419;52.358;9.752;2022-08-18T11:34:35;9.25;;;7.03;;
16612;SDS011;8419;52.358;9.752;2022-08-18T11:37:24;10.20;;;8.20;;
16612;SDS011;8419;52.358;9.752;2022-08-18T11:40:21;11.88;;;8.30;;
16612;SDS011;8419;52.358;9.752;2022-08-18T11:43:13;12.27;;;7.87;;
16612;SDS011;8419;52.358;9.752;2022-08-18T11:46:13;10.93;;;8.23;;
16612;SDS011;8419;52.358;9.752;2022-08-18T11:49:14;11.43;;;8.40;;
16612;SDS011;8419;52.358;9.752;2022-08-18T11:52:03;9.35;;;7.93;;
16612;SDS011;8419;52.358;9.752;2022-08-18T11:55:04;10.35;;;8.02;;
16612;SDS011;8419;52.358;9.752;2022-08-18T11:58:02;9.35;;;7.87;;
16612;SDS011;8419;52.358;9.752;2022-08-18T12:00:54;6.60;;;4.57;;
16612;SDS011;8419;52.358;9.752;2022-08-18T12:03:41;6.70;;;6.03;;
16612;SDS011;8419;52.358;9.752;2022-08-18T12:06:32;6.97;;;5.72;;
16612;SDS011;8419;52.358;9.752;2022-08-18T12:09:19;7.50;;;6.70;;
16612;SDS011;8419;52.358;9.752;2022-08-18T12:12:13;6.55;;;5.53;;
16612;SDS011;8419;52.358;9.752;2022-08-18T12:15:03;7.35;;;5.75;;
16612;SDS011;8419;52.358;9.752;2022-08-18T12:18:07;6.45;;;5.37;;
16612;SDS011;8419;52.358;9.752;2022-08-18T12:20:52;7.30;;;5.35;;
16612;SDS011;8419;52.358;9.752;2022-08-18T12:23:39;4.35;;;3.95;;
16612;SDS011;8419;52.358;9.752;2022-08-18T12:26:26;5.57;;;4.57;;
16612;SDS011;8419;52.358;9.752;2022-08-18T12:29:12;5.40;;;4.10;;
16612;SDS011;8419;52.358;9.752;2022-08-18T12:31:58;6.35;;;5.12;;
16612;SDS011;8419;52.358;9.752;2022-08-18T12:34:43;6.75;;;6.05;;
16612;SDS011;8419;52.358;9.752;2022-08-18T12:37:29;7.57;;;5.32;;
16612;SDS011;8419;52.358;9.752;2022-08-18T12:40:15;6.53;;;5.80;;
16612;SDS011;8419;52.358;9.752;2022-08-18T12:43:00;6.45;;;5.55;;
16612;SDS011;8419;52.358;9.752;2022-08-18T12:45:46;7.60;;;5.07;;
16612;SDS011;8419;52.358;9.752;2022-08-18T12:48:31;7.47;;;5.82;;
16612;SDS011;8419;52.358;9.752;2022-08-18T12:51:17;8.40;;;5.95;;
16612;SDS011;8419;52.358;9.752;2022-08-18T12:54:03;7.50;;;5.55;;
16612;SDS011;8419;52.358;9.752;2022-08-18T12:56:50;10.52;;;5.90;;
16612;SDS011;8419;52.358;9.752;2022-08-18T12:59:38;7.12;;;5.43;;
16612;SDS011;8419;52.358;9.752;2022-08-18T13:02:23;7.50;;;5.75;;
16612;SDS011;8419;52.358;9.752;2022-08-18T13:05:09;3.30;;;3.00;;
16612;SDS011;8419;52.358;9.752;2022-08-18T13:07:55;6.72;;;5.85;;
16612;SDS011;8419;52.358;9.752;2022-08-18T13:10:44;6.97;;;5.87;;
16612;SDS011;8419;52.358;9.752;2022-08-18T13:13:29;8.10;;;5.80;;
16612;SDS011;8419;52.358;9.752;2022-08-18T13:16:16;6.55;;;5.40;;
16612;SDS011;8419;52.358;9.752;2022-08-18T13:19:02;6.68;;;5.72;;
16612;SDS011;8419;52.358;9.752;2022-08-18T13:21:47;6.18;;;5.57;;
16612;SDS011;8419;52.358;9.752;2022-08-18T13:24:33;6.55;;;4.53;;
16612;SDS011;8419;52.358;9.752;2022-08-18T13:27:20;7.78;;;5.45;;
16612;SDS011;8419;52.358;9.752;2022-08-18T13:30:08;5.57;;;5.07;;
16612;SDS011;8419;52.358;9.752;2022-08-18T13:32:58;6.97;;;5.12;;
16612;SDS011;8419;52.358;9.752;2022-08-18T13:35:44;6.85;;;4.97;;
16612;SDS011;8419;52.358;9.752;2022-08-18T13:38:30;9.40;;;5.32;;
16612;SDS011;8419;52.358;9.752;2022-08-18T13:41:18;6.22;;;5.53;;
16612;SDS011;8419;52.358;9.752;2022-08-18T13:44:04;6.40;;;5.00;;
16612;SDS011;8419;52.358;9.752;2022-08-18T13:46:50;6.70;;;4.60;;
16612;SDS011;8419;52.358;9.752;2022-08-18T13:49:35;6.40;;;5.53;;
16612;SDS011;8419;52.358;9.752;2022-08-18T13:52:20;5.32;;;4.82;;
16612;SDS011;8419;52.358;9.752;2022-08-18T13:55:07;5.95;;;5.12;;
16612;SDS011;8419;52.358;9.752;2022-08-18T13:57:58;8.32;;;5.43;;
16612;SDS011;8419;52.358;9.752;2022-08-18T14:00:44;5.85;;;5.03;;
16612;SDS011;8419;52.358;9.752;2022-08-18T14:03:29;6.25;;;5.07;;
16612;SDS011;8419;52.358;9.752;2022-08-18T14:06:15;5.85;;;5.15;;
16612;SDS011;8419;52.358;9.752;2022-08-18T14:09:10;7.20;;;5.53;;
16612;SDS011;8419;52.358;9.752;2022-08-18T14:11:56;7.40;;;5.90;;
16612;SDS011;8419;52.358;9.752;2022-08-18T14:14:42;6.97;;;5.72;;
16612;SDS011;8419;52.358;9.752;2022-08-18T14:17:28;6.60;;;5.62;;
16612;SDS011;8419;52.358;9.752;2022-08-18T14:20:13;6.65;;;5.93;;
16612;SDS011;8419;52.358;9.752;2022-08-18T14:23:18;8.65;;;5.60;;
16612;SDS011;8419;52.358;9.752;2022-08-18T14:26:22;9.13;;;5.85;;
16612;SDS011;8419;52.358;9.752;2022-08-18T14:29:26;6.53;;;5.78;;
16612;SDS011;8419;52.358;9.752;2022-08-18T14:32:12;7.62;;;6.18;;
16612;SDS011;8419;52.358;9.752;2022-08-18T14:35:02;6.68;;;6.05;;
16612;SDS011;8419;52.358;9.752;2022-08-18T14:37:51;7.53;;;6.12;;
16612;SDS011;8419;52.358;9.752;2022-08-18T14:40:36;6.45;;;5.32;;
16612;SDS011;8419;52.358;9.752;2022-08-18T14:43:23;9.25;;;6.20;;
16612;SDS011;8419;52.358;9.752;2022-08-18T14:46:08;8.90;;;6.18;;
16612;SDS011;8419;52.358;9.752;2022-08-18T14:48:55;7.30;;;5.90;;
16612;SDS011;8419;52.358;9.752;2022-08-18T14:51:41;7.15;;;5.47;;
16612;SDS011;8419;52.358;9.752;2022-08-18T14:54:27;9.38;;;6.18;;
16612;SDS011;8419;52.358;9.752;2022-08-18T14:57:14;11.18;;;7.90;;
16612;SDS011;8419;52.358;9.752;2022-08-18T15:00:00;7.05;;;6.30;;
16612;SDS011;8419;52.358;9.752;2022-08-18T15:02:48;6.87;;;6.18;;
16612;SDS011;8419;52.358;9.752;2022-08-18T15:05:34;8.00;;;5.75;;
16612;SDS011;8419;52.358;9.752;2022-08-18T15:08:20;6.43;;;5.55;;
16612;SDS011;8419;52.358;9.752;2022-08-18T15:11:05;5.35;;;4.85;;
16612;SDS011;8419;52.358;9.752;2022-08-18T15:13:51;4.53;;;4.12;;
16612;SDS011;8419;52.358;9.752;2022-08-18T15:16:37;4.93;;;3.92;;
16612;SDS011;8419;52.358;9.752;2022-08-18T15:19:22;6.07;;;4.55;;
16612;SDS011;8419;52.358;9.752;2022-08-18T15:22:08;5.40;;;4.80;;
16612;SDS011;8419;52.358;9.752;2022-08-18T15:25:12;7.00;;;4.62;;
16612;SDS011;8419;52.358;9.752;2022-08-18T15:28:21;5.35;;;4.18;;
16612;SDS011;8419;52.358;9.752;2022-08-18T15:31:10;4.65;;;4.22;;
16612;SDS011;8419;52.358;9.752;2022-08-18T15:33:55;5.25;;;4.55;;
16612;SDS011;8419;52.358;9.752;2022-08-18T15:36:41;5.32;;;4.28;;
16612;SDS011;8419;52.358;9.752;2022-08-18T15:39:27;6.45;;;4.65;;
16612;SDS011;8419;52.358;9.752;2022-08-18T15:42:13;6.78;;;4.90;;
16612;SDS011;8419;52.358;9.752;2022-08-18T15:44:59;5.03;;;4.53;;
16612;SDS011;8419;52.358;9.752;2022-08-18T15:47:47;5.95;;;4.37;;
16612;SDS011;8419;52.358;9.752;2022-08-18T15:50:33;8.70;;;4.18;;
16612;SDS011;8419;52.358;9.752;2022-08-18T15:53:20;4.35;;;3.90;;
16612;SDS011;8419;52.358;9.752;2022-08-18T15:56:11;4.90;;;4.25;;
16612;SDS011;8419;52.358;9.752;2022-08-18T15:58:58;4.70;;;4.18;;
16612;SDS011;8419;52.358;9.752;2022-08-18T16:01:47;4.22;;;3.83;;
16612;SDS011;8419;52.358;9.752;2022-08-18T16:04:34;5.87;;;3.83;;
16612;SDS011;8419;52.358;9.752;2022-08-18T16:07:21;4.95;;;3.60;;
16612;SDS011;8419;52.358;9.752;2022-08-18T16:10:08;6.55;;;4.03;;
16612;SDS011;8419;52.358;9.752;2022-08-18T16:12:53;3.85;;;3.45;;
16612;SDS011;8419;52.358;9.752;2022-08-18T16:15:40;4.75;;;3.97;;
16612;SDS011;8419;52.358;9.752;2022-08-18T16:18:29;5.82;;;4.07;;
16612;SDS011;8419;52.358;9.752;2022-08-18T16:21:20;5.25;;;4.00;;
16612;SDS011;8419;52.358;9.752;2022-08-18T16:24:06;6.50;;;3.83;;
16612;SDS011;8419;52.358;9.752;2022-08-18T16:26:52;5.10;;;3.70;;
16612;SDS011;8419;52.358;9.752;2022-08-18T16:29:39;4.68;;;3.80;;
16612;SDS011;8419;52.358;9.752;2022-08-18T16:32:24;5.28;;;3.53;;
16612;SDS011;8419;52.358;9.752;2022-08-18T16:35:11;4.55;;;3.78;;
16612;SDS011;8419;52.358;9.752;2022-08-18T16:38:01;6.00;;;4.10;;
16612;SDS011;8419;52.358;9.752;2022-08-18T16:40:47;4.80;;;4.22;;
16612;SDS011;8419;52.358;9.752;2022-08-18T16:43:33;6.62;;;4.82;;
16612;SDS011;8419;52.358;9.752;2022-08-18T16:46:20;5.87;;;4.78;;
16612;SDS011;8419;52.358;9.752;2022-08-18T16:49:09;5.12;;;4.62;;
16612;SDS011;8419;52.358;9.752;2022-08-18T16:51:55;7.70;;;4.75;;
16612;SDS011;8419;52.358;9.752;2022-08-18T16:54:40;5.78;;;4.60;;
16612;SDS011;8419;52.358;9.752;2022-08-18T16:57:26;5.00;;;4.40;;
16612;SDS011;8419;52.358;9.752;2022-08-18T17:00:31;6.03;;;4.95;;
16612;SDS011;8419;52.358;9.752;2022-08-18T17:03:37;7.40;;;4.97;;
16612;SDS011;8419;52.358;9.752;2022-08-18T17:06:41;5.43;;;4.68;;